SBJP/JPA METAR and TAF weather

Enter ICAO airport designator
Station Type Date Time Source
SBJP METAR 2019/05/25 09:00 UTC NOAA

SBJP 250900Z 22007KT 9999 FEW020 BKN080 24/24 Q1013


Station Type Date Time Source
SBJP Decoded METAR 2019/05/25 09:00 UTC NOAA

Joao Pessoa, Brazil (SBJP) 07-06S 034-52W
May 25, 2019 - 05:00 AM EDT / 2019.05.25 0900 UTC
Wind: from the SW (220 degrees) at 8 MPH (7 KT):0
Visibility: greater than 7 mile(s):0
Sky conditions: mostly cloudy
Temperature: 75 F (24 C)
Dew Point: 75 F (24 C)
Relative Humidity: 100%
Pressure (altimeter): 29.91 in. Hg (1013 hPa)
ob: SBJP 250900Z 22007KT 9999 FEW020 BKN080 24/24 Q1013
cycle: 9

Station Type Date Time Source
SBJP TAF 2019/05/25 12:42 UTC NOAA

TAF TAF SBJP 2512/2612 16008KT 9999 BKN025 TX30/2517Z TN24/2608Z
BECMG 2516/2518 FEW020
BECMG 2602/2604 22004KT SCT020
BECMG 2606/2608 19004KT FEW020
RMK PFF

Example: see airport list